sensor_id;sensor_type;location;lat;lon;timestamp;temperature;humidity
65036;DHT22;51603;49.300;8.880;2023-02-23T00:01:32;8.40;99.90
65036;DHT22;51603;49.300;8.880;2023-02-23T00:03:58;8.40;99.90
65036;DHT22;51603;49.300;8.880;2023-02-23T00:06:29;8.40;99.90
65036;DHT22;51603;49.300;8.880;2023-02-23T00:08:55;8.30;99.90
65036;DHT22;51603;49.300;8.880;2023-02-23T00:11:22;8.30;99.90
65036;DHT22;51603;49.300;8.880;2023-02-23T00:13:49;8.30;99.90
65036;DHT22;51603;49.300;8.880;2023-02-23T00:16:17;8.30;99.90
65036;DHT22;51603;49.300;8.880;2023-02-23T00:18:46;8.30;99.90
65036;DHT22;51603;49.300;8.880;2023-02-23T00:23:46;8.30;99.90
65036;DHT22;51603;49.300;8.880;2023-02-23T00:26:12;8.20;99.90
65036;DHT22;51603;49.300;8.880;2023-02-23T00:28:40;8.30;99.90
65036;DHT22;51603;49.300;8.880;2023-02-23T00:31:07;8.30;99.90
65036;DHT22;51603;49.300;8.880;2023-02-23T00:33:32;8.30;99.90
65036;DHT22;51603;49.300;8.880;2023-02-23T00:36:04;8.20;99.90
65036;DHT22;51603;49.300;8.880;2023-02-23T00:38:30;8.20;99.90
65036;DHT22;51603;49.300;8.880;2023-02-23T00:41:03;8.20;99.90
65036;DHT22;51603;49.300;8.880;2023-02-23T00:43:33;8.20;99.90
65036;DHT22;51603;49.300;8.880;2023-02-23T00:45:58;8.20;99.90
65036;DHT22;51603;49.300;8.880;2023-02-23T00:48:24;8.20;99.90
65036;DHT22;51603;49.300;8.880;2023-02-23T00:51:05;8.20;99.90
65036;DHT22;51603;49.300;8.880;2023-02-23T00:53:31;8.20;99.90
65036;DHT22;51603;49.300;8.880;2023-02-23T00:55:57;8.30;99.90
65036;DHT22;51603;49.300;8.880;2023-02-23T00:58:24;8.30;99.90
65036;DHT22;51603;49.300;8.880;2023-02-23T01:00:50;8.30;99.90
65036;DHT22;51603;49.300;8.880;2023-02-23T01:03:16;8.30;99.90
65036;DHT22;51603;49.300;8.880;2023-02-23T01:05:41;8.30;99.90
65036;DHT22;51603;49.300;8.880;2023-02-23T01:08:08;8.30;99.90
65036;DHT22;51603;49.300;8.880;2023-02-23T01:10:39;8.30;99.90
65036;DHT22;51603;49.300;8.880;2023-02-23T01:13:05;8.30;99.90
65036;DHT22;51603;49.300;8.880;2023-02-23T01:15:31;8.30;99.90
65036;DHT22;51603;49.300;8.880;2023-02-23T01:17:57;8.40;99.90
65036;DHT22;51603;49.300;8.880;2023-02-23T01:20:23;8.40;99.90
65036;DHT22;51603;49.300;8.880;2023-02-23T01:22:49;8.50;99.90
65036;DHT22;51603;49.300;8.880;2023-02-23T01:25:17;8.50;99.90
65036;DHT22;51603;49.300;8.880;2023-02-23T01:27:43;8.60;99.90
65036;DHT22;51603;49.300;8.880;2023-02-23T01:30:10;8.50;99.90
65036;DHT22;51603;49.300;8.880;2023-02-23T01:32:37;8.60;99.90
65036;DHT22;51603;49.300;8.880;2023-02-23T01:35:07;8.60;99.90
65036;DHT22;51603;49.300;8.880;2023-02-23T01:37:35;8.50;99.90
65036;DHT22;51603;49.300;8.880;2023-02-23T01:40:05;8.40;99.90
65036;DHT22;51603;49.300;8.880;2023-02-23T01:42:44;8.40;99.90
65036;DHT22;51603;49.300;8.880;2023-02-23T01:47:44;8.30;99.90
65036;DHT22;51603;49.300;8.880;2023-02-23T01:50:10;8.30;99.90
65036;DHT22;51603;49.300;8.880;2023-02-23T01:52:37;8.30;99.90
65036;DHT22;51603;49.300;8.880;2023-02-23T01:55:04;8.30;99.90
65036;DHT22;51603;49.300;8.880;2023-02-23T01:57:30;8.30;99.90
65036;DHT22;51603;49.300;8.880;2023-02-23T01:59:56;8.40;99.90
65036;DHT22;51603;49.300;8.880;2023-02-23T02:02:25;8.40;99.90
65036;DHT22;51603;49.300;8.880;2023-02-23T02:04:58;8.50;99.90
65036;DHT22;51603;49.300;8.880;2023-02-23T02:07:29;8.50;99.90
65036;DHT22;51603;49.300;8.880;2023-02-23T02:09:56;8.50;99.90
65036;DHT22;51603;49.300;8.880;2023-02-23T02:12:38;8.40;99.90
65036;DHT22;51603;49.300;8.880;2023-02-23T02:15:06;8.40;99.90
65036;DHT22;51603;49.300;8.880;2023-02-23T02:17:48;8.40;99.90
65036;DHT22;51603;49.300;8.880;2023-02-23T02:20:30;8.40;99.90
65036;DHT22;51603;49.300;8.880;2023-02-23T02:26:32;8.40;99.90
65036;DHT22;51603;49.300;8.880;2023-02-23T02:34:42;8.30;99.90
65036;DHT22;51603;49.300;8.880;2023-02-23T02:40:17;8.20;99.90
65036;DHT22;51603;49.300;8.880;2023-02-23T02:43:15;8.10;99.90
65036;DHT22;51603;49.300;8.880;2023-02-23T02:45:49;8.10;99.90
65036;DHT22;51603;49.300;8.880;2023-02-23T02:48:27;8.10;99.90
65036;DHT22;51603;49.300;8.880;2023-02-23T02:53:40;8.10;99.90
65036;DHT22;51603;49.300;8.880;2023-02-23T02:56:10;8.10;99.90
65036;DHT22;51603;49.300;8.880;2023-02-23T02:58:37;8.00;99.90
65036;DHT22;51603;49.300;8.880;2023-02-23T03:01:11;8.00;99.90
65036;DHT22;51603;49.300;8.880;2023-02-23T03:03:55;8.00;99.90
65036;DHT22;51603;49.300;8.880;2023-02-23T03:09:46;8.10;99.90
65036;DHT22;51603;49.300;8.880;2023-02-23T03:12:50;8.10;99.90
65036;DHT22;51603;49.300;8.880;2023-02-23T03:19:28;8.20;99.90
65036;DHT22;51603;49.300;8.880;2023-02-23T03:22:27;8.20;99.90
65036;DHT22;51603;49.300;8.880;2023-02-23T03:25:20;8.20;99.90
65036;DHT22;51603;49.300;8.880;2023-02-23T03:28:17;8.20;99.90
65036;DHT22;51603;49.300;8.880;2023-02-23T03:31:14;8.20;99.90
65036;DHT22;51603;49.300;8.880;2023-02-23T03:34:11;8.10;99.90
65036;DHT22;51603;49.300;8.880;2023-02-23T03:39:52;8.10;99.90
65036;DHT22;51603;49.300;8.880;2023-02-23T03:42:39;8.00;99.90
65036;DHT22;51603;49.300;8.880;2023-02-23T03:45:25;8.10;99.90
65036;DHT22;51603;49.300;8.880;2023-02-23T03:48:12;8.10;99.90
65036;DHT22;51603;49.300;8.880;2023-02-23T03:51:03;8.00;99.90
65036;DHT22;51603;49.300;8.880;2023-02-23T03:54:01;8.00;99.90
65036;DHT22;51603;49.300;8.880;2023-02-23T03:56:49;8.00;99.90
65036;DHT22;51603;49.300;8.880;2023-02-23T03:59:39;8.10;99.90
65036;DHT22;51603;49.300;8.880;2023-02-23T04:02:26;8.10;99.90
65036;DHT22;51603;49.300;8.880;2023-02-23T04:05:15;8.20;99.90
65036;DHT22;51603;49.300;8.880;2023-02-23T04:08:02;8.30;99.90
65036;DHT22;51603;49.300;8.880;2023-02-23T04:14:00;8.40;99.90
65036;DHT22;51603;49.300;8.880;2023-02-23T04:16:29;8.30;99.90
65036;DHT22;51603;49.300;8.880;2023-02-23T04:18:55;8.30;99.90
65036;DHT22;51603;49.300;8.880;2023-02-23T04:21:21;8.40;99.90
65036;DHT22;51603;49.300;8.880;2023-02-23T04:23:47;8.40;99.90
65036;DHT22;51603;49.300;8.880;2023-02-23T04:26:12;8.50;99.90
65036;DHT22;51603;49.300;8.880;2023-02-23T04:28:38;8.60;99.90
65036;DHT22;51603;49.300;8.880;2023-02-23T04:31:04;8.70;99.90
65036;DHT22;51603;49.300;8.880;2023-02-23T04:33:29;8.70;99.90
65036;DHT22;51603;49.300;8.880;2023-02-23T04:35:55;8.70;99.90
65036;DHT22;51603;49.300;8.880;2023-02-23T04:38:21;8.80;99.90
65036;DHT22;51603;49.300;8.880;2023-02-23T04:40:47;8.80;99.90
65036;DHT22;51603;49.300;8.880;2023-02-23T04:43:12;8.80;99.90
65036;DHT22;51603;49.300;8.880;2023-02-23T04:45:38;8.80;99.90
65036;DHT22;51603;49.300;8.880;2023-02-23T04:48:04;8.80;99.90
65036;DHT22;51603;49.300;8.880;2023-02-23T04:50:30;8.80;99.90
65036;DHT22;51603;49.300;8.880;2023-02-23T04:52:55;8.80;99.90
65036;DHT22;51603;49.300;8.880;2023-02-23T04:55:23;8.90;99.90
65036;DHT22;51603;49.300;8.880;2023-02-23T04:57:50;8.90;99.90
65036;DHT22;51603;49.300;8.880;2023-02-23T05:00:16;8.80;99.90
65036;DHT22;51603;49.300;8.880;2023-02-23T05:02:42;8.90;99.90
65036;DHT22;51603;49.300;8.880;2023-02-23T05:05:08;8.90;99.90
65036;DHT22;51603;49.300;8.880;2023-02-23T05:07:34;8.90;99.90
65036;DHT22;51603;49.300;8.880;2023-02-23T05:10:00;8.90;99.90
65036;DHT22;51603;49.300;8.880;2023-02-23T05:12:26;8.90;99.90
65036;DHT22;51603;49.300;8.880;2023-02-23T05:14:51;8.80;99.90
65036;DHT22;51603;49.300;8.880;2023-02-23T05:17:17;8.80;99.90
65036;DHT22;51603;49.300;8.880;2023-02-23T05:19:42;8.80;99.90
65036;DHT22;51603;49.300;8.880;2023-02-23T05:22:08;8.80;99.90
65036;DHT22;51603;49.300;8.880;2023-02-23T05:24:38;8.80;99.90
65036;DHT22;51603;49.300;8.880;2023-02-23T05:27:03;8.80;99.90
65036;DHT22;51603;49.300;8.880;2023-02-23T05:29:29;8.80;99.90
65036;DHT22;51603;49.300;8.880;2023-02-23T05:31:54;8.80;99.90
65036;DHT22;51603;49.300;8.880;2023-02-23T05:34:20;8.80;99.90
65036;DHT22;51603;49.300;8.880;2023-02-23T05:36:45;8.80;99.90
65036;DHT22;51603;49.300;8.880;2023-02-23T05:39:11;8.80;99.90
65036;DHT22;51603;49.300;8.880;2023-02-23T05:41:37;8.80;99.90
65036;DHT22;51603;49.300;8.880;2023-02-23T05:44:02;8.80;99.90
65036;DHT22;51603;49.300;8.880;2023-02-23T05:46:28;8.80;99.90
65036;DHT22;51603;49.300;8.880;2023-02-23T05:48:56;8.80;99.90
65036;DHT22;51603;49.300;8.880;2023-02-23T05:51:22;8.80;99.90
65036;DHT22;51603;49.300;8.880;2023-02-23T05:53:48;8.90;99.90
65036;DHT22;51603;49.300;8.880;2023-02-23T05:56:14;8.80;99.90
65036;DHT22;51603;49.300;8.880;2023-02-23T05:58:45;8.80;99.90
65036;DHT22;51603;49.300;8.880;2023-02-23T06:01:11;8.90;99.90
65036;DHT22;51603;49.300;8.880;2023-02-23T06:03:36;8.90;99.90
65036;DHT22;51603;49.300;8.880;2023-02-23T06:06:02;8.90;99.90
65036;DHT22;51603;49.300;8.880;2023-02-23T06:08:27;8.80;99.90
65036;DHT22;51603;49.300;8.880;2023-02-23T06:10:53;8.90;99.90
65036;DHT22;51603;49.300;8.880;2023-02-23T06:13:19;8.90;99.90
65036;DHT22;51603;49.300;8.880;2023-02-23T06:15:45;8.90;99.90
65036;DHT22;51603;49.300;8.880;2023-02-23T06:18:11;8.90;99.90
65036;DHT22;51603;49.300;8.880;2023-02-23T06:20:37;8.90;99.90
65036;DHT22;51603;49.300;8.880;2023-02-23T06:23:03;8.90;99.90
65036;DHT22;51603;49.300;8.880;2023-02-23T06:25:29;8.90;99.90
65036;DHT22;51603;49.300;8.880;2023-02-23T06:27:55;8.90;99.90
65036;DHT22;51603;49.300;8.880;2023-02-23T06:30:21;8.90;99.90
65036;DHT22;51603;49.300;8.880;2023-02-23T06:32:47;8.90;99.90
65036;DHT22;51603;49.300;8.880;2023-02-23T06:35:12;8.90;99.90
65036;DHT22;51603;49.300;8.880;2023-02-23T06:37:38;8.90;99.90
65036;DHT22;51603;49.300;8.880;2023-02-23T06:40:04;8.90;99.90
65036;DHT22;51603;49.300;8.880;2023-02-23T06:42:30;9.00;99.90
65036;DHT22;51603;49.300;8.880;2023-02-23T06:44:56;9.00;99.90
65036;DHT22;51603;49.300;8.880;2023-02-23T06:47:21;8.90;99.90
65036;DHT22;51603;49.300;8.880;2023-02-23T06:49:47;8.90;99.90
65036;DHT22;51603;49.300;8.880;2023-02-23T06:52:13;8.90;99.90
65036;DHT22;51603;49.300;8.880;2023-02-23T06:54:39;8.90;99.90
65036;DHT22;51603;49.300;8.880;2023-02-23T06:57:09;8.90;99.90
65036;DHT22;51603;49.300;8.880;2023-02-23T06:59:34;8.90;99.90
65036;DHT22;51603;49.300;8.880;2023-02-23T07:02:01;8.90;99.90
65036;DHT22;51603;49.300;8.880;2023-02-23T07:04:29;8.90;99.90
65036;DHT22;51603;49.300;8.880;2023-02-23T07:06:54;8.90;99.90
65036;DHT22;51603;49.300;8.880;2023-02-23T07:09:20;8.80;99.90
65036;DHT22;51603;49.300;8.880;2023-02-23T07:11:45;8.80;99.90
65036;DHT22;51603;49.300;8.880;2023-02-23T07:14:11;8.90;99.90
65036;DHT22;51603;49.300;8.880;2023-02-23T07:16:37;8.90;99.90
65036;DHT22;51603;49.300;8.880;2023-02-23T07:19:03;8.90;99.90
65036;DHT22;51603;49.300;8.880;2023-02-23T07:21:30;8.90;99.90
65036;DHT22;51603;49.300;8.880;2023-02-23T07:23:59;8.90;99.90
65036;DHT22;51603;49.300;8.880;2023-02-23T07:26:25;9.00;99.90
65036;DHT22;51603;49.300;8.880;2023-02-23T07:28:51;9.00;99.90
65036;DHT22;51603;49.300;8.880;2023-02-23T07:31:17;9.00;99.90
65036;DHT22;51603;49.300;8.880;2023-02-23T07:33:43;9.10;99.90
65036;DHT22;51603;49.300;8.880;2023-02-23T07:36:09;9.10;99.90
65036;DHT22;51603;49.300;8.880;2023-02-23T07:38:35;9.10;99.90
65036;DHT22;51603;49.300;8.880;2023-02-23T07:41:01;9.10;99.90
65036;DHT22;51603;49.300;8.880;2023-02-23T07:43:27;9.10;99.90
65036;DHT22;51603;49.300;8.880;2023-02-23T07:45:53;9.10;99.90
65036;DHT22;51603;49.300;8.880;2023-02-23T07:48:19;9.10;99.90
65036;DHT22;51603;49.300;8.880;2023-02-23T07:50:45;9.10;99.90
65036;DHT22;51603;49.300;8.880;2023-02-23T07:53:11;9.10;99.90
65036;DHT22;51603;49.300;8.880;2023-02-23T07:55:37;9.10;99.90
65036;DHT22;51603;49.300;8.880;2023-02-23T07:58:03;9.20;99.90
65036;DHT22;51603;49.300;8.880;2023-02-23T08:00:30;9.20;99.90
65036;DHT22;51603;49.300;8.880;2023-02-23T08:02:57;9.20;99.90
65036;DHT22;51603;49.300;8.880;2023-02-23T08:05:23;9.20;99.90
65036;DHT22;51603;49.300;8.880;2023-02-23T08:07:50;9.20;99.90
65036;DHT22;51603;49.300;8.880;2023-02-23T08:10:16;9.30;99.90
65036;DHT22;51603;49.300;8.880;2023-02-23T08:12:42;9.30;99.90
65036;DHT22;51603;49.300;8.880;2023-02-23T08:15:08;9.30;99.90
65036;DHT22;51603;49.300;8.880;2023-02-23T08:17:36;9.30;99.90
65036;DHT22;51603;49.300;8.880;2023-02-23T08:20:02;9.30;99.90
65036;DHT22;51603;49.300;8.880;2023-02-23T08:22:28;9.30;99.90
65036;DHT22;51603;49.300;8.880;2023-02-23T08:24:53;9.30;99.90
65036;DHT22;51603;49.300;8.880;2023-02-23T08:27:19;9.40;99.90
65036;DHT22;51603;49.300;8.880;2023-02-23T08:29:44;9.40;99.90
65036;DHT22;51603;49.300;8.880;2023-02-23T08:32:10;9.40;99.90
65036;DHT22;51603;49.300;8.880;2023-02-23T08:34:38;9.50;99.90
65036;DHT22;51603;49.300;8.880;2023-02-23T08:37:03;9.50;99.90
65036;DHT22;51603;49.300;8.880;2023-02-23T08:39:29;9.60;99.90
65036;DHT22;51603;49.300;8.880;2023-02-23T08:41:54;9.70;99.90
65036;DHT22;51603;49.300;8.880;2023-02-23T08:44:20;9.80;99.90
65036;DHT22;51603;49.300;8.880;2023-02-23T08:46:46;9.80;99.90
65036;DHT22;51603;49.300;8.880;2023-02-23T08:49:11;9.90;99.90
65036;DHT22;51603;49.300;8.880;2023-02-23T08:51:37;9.90;99.90
65036;DHT22;51603;49.300;8.880;2023-02-23T08:54:02;10.00;99.90
65036;DHT22;51603;49.300;8.880;2023-02-23T08:56:28;10.00;99.90
65036;DHT22;51603;49.300;8.880;2023-02-23T08:58:55;10.00;99.90
65036;DHT22;51603;49.300;8.880;2023-02-23T09:01:21;10.00;99.90
65036;DHT22;51603;49.300;8.880;2023-02-23T09:03:47;10.10;99.90
65036;DHT22;51603;49.300;8.880;2023-02-23T09:06:19;10.00;99.90
65036;DHT22;51603;49.300;8.880;2023-02-23T09:08:45;10.00;99.90
65036;DHT22;51603;49.300;8.880;2023-02-23T09:11:11;10.10;99.90
65036;DHT22;51603;49.300;8.880;2023-02-23T09:13:37;10.10;99.90
65036;DHT22;51603;49.300;8.880;2023-02-23T09:16:02;10.10;99.90
65036;DHT22;51603;49.300;8.880;2023-02-23T09:18:28;10.10;99.90
65036;DHT22;51603;49.300;8.880;2023-02-23T09:20:55;10.10;99.90
65036;DHT22;51603;49.300;8.880;2023-02-23T09:23:21;10.10;99.90
65036;DHT22;51603;49.300;8.880;2023-02-23T09:25:49;10.10;99.90
65036;DHT22;51603;49.300;8.880;2023-02-23T09:28:17;10.10;99.90
65036;DHT22;51603;49.300;8.880;2023-02-23T09:30:44;10.10;99.90
65036;DHT22;51603;49.300;8.880;2023-02-23T09:33:10;10.10;99.90
65036;DHT22;51603;49.300;8.880;2023-02-23T09:35:36;10.10;99.90
65036;DHT22;51603;49.300;8.880;2023-02-23T09:38:03;10.10;99.90
65036;DHT22;51603;49.300;8.880;2023-02-23T09:40:45;10.10;99.90
65036;DHT22;51603;49.300;8.880;2023-02-23T09:43:19;10.00;99.90
65036;DHT22;51603;49.300;8.880;2023-02-23T09:45:50;10.00;99.90
65036;DHT22;51603;49.300;8.880;2023-02-23T09:48:25;10.00;99.90
65036;DHT22;51603;49.300;8.880;2023-02-23T09:50:53;10.00;99.90
65036;DHT22;51603;49.300;8.880;2023-02-23T09:55:44;10.30;99.90
65036;DHT22;51603;49.300;8.880;2023-02-23T09:58:32;10.40;99.90
65036;DHT22;51603;49.300;8.880;2023-02-23T10:04:11;10.60;99.90
65036;DHT22;51603;49.300;8.880;2023-02-23T10:06:41;10.70;99.90
65036;DHT22;51603;49.300;8.880;2023-02-23T10:12:12;11.00;99.90
65036;DHT22;51603;49.300;8.880;2023-02-23T10:15:11;11.10;99.90
65036;DHT22;51603;49.300;8.880;2023-02-23T10:20:33;11.30;99.90
65036;DHT22;51603;49.300;8.880;2023-02-23T10:23:06;11.30;99.90
65036;DHT22;51603;49.300;8.880;2023-02-23T10:25:36;11.40;99.90
65036;DHT22;51603;49.300;8.880;2023-02-23T10:28:05;11.50;99.90
65036;DHT22;51603;49.300;8.880;2023-02-23T10:30:34;11.60;99.90
65036;DHT22;51603;49.300;8.880;2023-02-23T10:35:38;11.90;99.90
65036;DHT22;51603;49.300;8.880;2023-02-23T10:38:04;12.20;99.90
65036;DHT22;51603;49.300;8.880;2023-02-23T10:40:32;12.30;99.90
65036;DHT22;51603;49.300;8.880;2023-02-23T10:43:00;12.30;99.90
65036;DHT22;51603;49.300;8.880;2023-02-23T10:45:27;12.10;99.90
65036;DHT22;51603;49.300;8.880;2023-02-23T10:48:13;12.00;99.90
65036;DHT22;51603;49.300;8.880;2023-02-23T10:50:42;11.90;99.90
65036;DHT22;51603;49.300;8.880;2023-02-23T10:53:23;11.90;99.90
65036;DHT22;51603;49.300;8.880;2023-02-23T10:56:10;11.90;99.90
65036;DHT22;51603;49.300;8.880;2023-02-23T10:58:43;11.80;99.90
65036;DHT22;51603;49.300;8.880;2023-02-23T11:01:12;11.80;99.90
65036;DHT22;51603;49.300;8.880;2023-02-23T11:03:44;11.80;99.90
65036;DHT22;51603;49.300;8.880;2023-02-23T11:06:31;11.70;99.90
65036;DHT22;51603;49.300;8.880;2023-02-23T11:08:56;11.70;99.90
65036;DHT22;51603;49.300;8.880;2023-02-23T11:11:25;11.80;99.90
65036;DHT22;51603;49.300;8.880;2023-02-23T11:13:51;12.00;99.90
65036;DHT22;51603;49.300;8.880;2023-02-23T11:18:54;12.20;99.90
65036;DHT22;51603;49.300;8.880;2023-02-23T11:23:56;12.40;99.90
65036;DHT22;51603;49.300;8.880;2023-02-23T11:26:30;12.50;99.90
65036;DHT22;51603;49.300;8.880;2023-02-23T11:28:59;12.60;99.90
65036;DHT22;51603;49.300;8.880;2023-02-23T11:31:32;12.60;99.90
65036;DHT22;51603;49.300;8.880;2023-02-23T11:34:01;12.70;99.90
65036;DHT22;51603;49.300;8.880;2023-02-23T11:36:30;12.80;99.90
65036;DHT22;51603;49.300;8.880;2023-02-23T11:39:18;12.90;99.90
65036;DHT22;51603;49.300;8.880;2023-02-23T11:41:44;13.00;99.90
65036;DHT22;51603;49.300;8.880;2023-02-23T11:44:28;13.10;99.90
65036;DHT22;51603;49.300;8.880;2023-02-23T11:46:53;13.00;99.90
65036;DHT22;51603;49.300;8.880;2023-02-23T11:49:22;13.00;99.90
65036;DHT22;51603;49.300;8.880;2023-02-23T11:51:50;13.10;99.90
65036;DHT22;51603;49.300;8.880;2023-02-23T11:54:29;13.20;99.90
65036;DHT22;51603;49.300;8.880;2023-02-23T11:56:56;13.30;99.90
65036;DHT22;51603;49.300;8.880;2023-02-23T11:59:42;13.20;99.90
65036;DHT22;51603;49.300;8.880;2023-02-23T12:04:53;13.40;99.90
65036;DHT22;51603;49.300;8.880;2023-02-23T12:07:36;13.60;99.90
65036;DHT22;51603;49.300;8.880;2023-02-23T12:10:38;13.60;99.90
65036;DHT22;51603;49.300;8.880;2023-02-23T12:13:36;13.60;99.90
65036;DHT22;51603;49.300;8.880;2023-02-23T12:16:25;13.50;99.90
65036;DHT22;51603;49.300;8.880;2023-02-23T12:21:58;13.30;99.90
65036;DHT22;51603;49.300;8.880;2023-02-23T12:27:15;13.20;99.90
65036;DHT22;51603;49.300;8.880;2023-02-23T12:32:23;13.50;99.90
65036;DHT22;51603;49.300;8.880;2023-02-23T12:34:56;13.50;99.90
65036;DHT22;51603;49.300;8.880;2023-02-23T12:40:04;13.30;99.90
65036;DHT22;51603;49.300;8.880;2023-02-23T12:42:39;13.20;99.90
65036;DHT22;51603;49.300;8.880;2023-02-23T12:45:15;13.10;99.90
65036;DHT22;51603;49.300;8.880;2023-02-23T12:48:11;13.20;99.90
65036;DHT22;51603;49.300;8.880;2023-02-23T12:50:44;13.00;99.90
65036;DHT22;51603;49.300;8.880;2023-02-23T12:53:22;13.10;99.90
65036;DHT22;51603;49.300;8.880;2023-02-23T12:56:23;13.20;99.90
65036;DHT22;51603;49.300;8.880;2023-02-23T13:01:42;13.30;99.90
65036;DHT22;51603;49.300;8.880;2023-02-23T13:06:54;13.50;99.90
65036;DHT22;51603;49.300;8.880;2023-02-23T13:09:36;13.60;99.90
65036;DHT22;51603;49.300;8.880;2023-02-23T13:12:13;13.70;99.90
65036;DHT22;51603;49.300;8.880;2023-02-23T13:20:25;13.90;99.90
65036;DHT22;51603;49.300;8.880;2023-02-23T13:25:38;14.00;99.90
65036;DHT22;51603;49.300;8.880;2023-02-23T13:28:16;14.00;99.90
65036;DHT22;51603;49.300;8.880;2023-02-23T13:30:42;14.10;99.90
65036;DHT22;51603;49.300;8.880;2023-02-23T13:33:26;14.00;99.90
65036;DHT22;51603;49.300;8.880;2023-02-23T13:35:52;13.80;99.90
65036;DHT22;51603;49.300;8.880;2023-02-23T13:38:45;13.80;99.90
65036;DHT22;51603;49.300;8.880;2023-02-23T13:41:18;13.70;99.90
65036;DHT22;51603;49.300;8.880;2023-02-23T13:43:55;13.70;99.90
65036;DHT22;51603;49.300;8.880;2023-02-23T13:46:47;13.50;99.90
65036;DHT22;51603;49.300;8.880;2023-02-23T13:49:33;13.50;99.90
65036;DHT22;51603;49.300;8.880;2023-02-23T13:52:09;13.40;99.90
65036;DHT22;51603;49.300;8.880;2023-02-23T13:54:36;13.30;99.90
65036;DHT22;51603;49.300;8.880;2023-02-23T13:57:04;13.30;99.90
65036;DHT22;51603;49.300;8.880;2023-02-23T13:59:40;13.30;99.90
65036;DHT22;51603;49.300;8.880;2023-02-23T14:07:31;13.30;99.90
65036;DHT22;51603;49.300;8.880;2023-02-23T14:10:04;13.20;99.90
65036;DHT22;51603;49.300;8.880;2023-02-23T14:12:32;13.10;99.90
65036;DHT22;51603;49.300;8.880;2023-02-23T14:17:57;13.10;99.90
65036;DHT22;51603;49.300;8.880;2023-02-23T14:24:00;13.00;99.90
65036;DHT22;51603;49.300;8.880;2023-02-23T14:29:10;13.00;99.90
65036;DHT22;51603;49.300;8.880;2023-02-23T14:32:25;13.00;99.90
65036;DHT22;51603;49.300;8.880;2023-02-23T14:34:51;13.00;99.90
65036;DHT22;51603;49.300;8.880;2023-02-23T14:37:22;12.90;99.90
65036;DHT22;51603;49.300;8.880;2023-02-23T14:39:51;12.90;99.90
65036;DHT22;51603;49.300;8.880;2023-02-23T14:42:21;12.90;99.90
65036;DHT22;51603;49.300;8.880;2023-02-23T14:44:48;12.80;99.90
65036;DHT22;51603;49.300;8.880;2023-02-23T14:47:19;12.80;99.90
65036;DHT22;51603;49.300;8.880;2023-02-23T14:49:58;12.80;99.90
65036;DHT22;51603;49.300;8.880;2023-02-23T14:52:39;12.80;99.90
65036;DHT22;51603;49.300;8.880;2023-02-23T14:57:39;12.80;99.90
65036;DHT22;51603;49.300;8.880;2023-02-23T15:02:55;12.70;99.90
65036;DHT22;51603;49.300;8.880;2023-02-23T15:05:30;12.70;99.90
65036;DHT22;51603;49.300;8.880;2023-02-23T15:08:02;12.70;99.90
65036;DHT22;51603;49.300;8.880;2023-02-23T15:10:34;12.60;99.90
65036;DHT22;51603;49.300;8.880;2023-02-23T15:13:11;12.60;99.90
65036;DHT22;51603;49.300;8.880;2023-02-23T15:15:43;12.60;99.90
65036;DHT22;51603;49.300;8.880;2023-02-23T15:18:18;12.60;99.90
65036;DHT22;51603;49.300;8.880;2023-02-23T15:20:47;12.60;99.90
65036;DHT22;51603;49.300;8.880;2023-02-23T15:23:17;12.60;99.90
65036;DHT22;51603;49.300;8.880;2023-02-23T15:25:44;12.60;99.90
65036;DHT22;51603;49.300;8.880;2023-02-23T15:28:25;12.50;99.90
65036;DHT22;51603;49.300;8.880;2023-02-23T15:30:57;12.50;99.90
65036;DHT22;51603;49.300;8.880;2023-02-23T15:33:23;12.50;99.90
65036;DHT22;51603;49.300;8.880;2023-02-23T15:38:51;12.60;99.90
65036;DHT22;51603;49.300;8.880;2023-02-23T15:41:35;12.60;99.90
65036;DHT22;51603;49.300;8.880;2023-02-23T15:44:17;12.50;99.90
65036;DHT22;51603;49.300;8.880;2023-02-23T15:46:49;12.50;99.90
65036;DHT22;51603;49.300;8.880;2023-02-23T15:49:15;12.40;99.90
65036;DHT22;51603;49.300;8.880;2023-02-23T15:51:47;12.40;99.90
65036;DHT22;51603;49.300;8.880;2023-02-23T15:57:06;12.40;99.90
65036;DHT22;51603;49.300;8.880;2023-02-23T15:59:36;12.40;99.90
65036;DHT22;51603;49.300;8.880;2023-02-23T16:02:21;12.40;99.90
65036;DHT22;51603;49.300;8.880;2023-02-23T16:04:47;12.30;99.90
65036;DHT22;51603;49.300;8.880;2023-02-23T16:07:23;12.30;99.90
65036;DHT22;51603;49.300;8.880;2023-02-23T16:09:55;12.20;99.90
65036;DHT22;51603;49.300;8.880;2023-02-23T16:12:35;12.20;99.90
65036;DHT22;51603;49.300;8.880;2023-02-23T16:15:05;12.30;99.90
65036;DHT22;51603;49.300;8.880;2023-02-23T16:17:45;12.20;99.90
65036;DHT22;51603;49.300;8.880;2023-02-23T16:20:26;12.10;99.90
65036;DHT22;51603;49.300;8.880;2023-02-23T16:22:55;12.10;99.90
65036;DHT22;51603;49.300;8.880;2023-02-23T16:25:24;12.10;99.90
65036;DHT22;51603;49.300;8.880;2023-02-23T16:28:02;12.00;99.90
65036;DHT22;51603;49.300;8.880;2023-02-23T16:30:40;12.00;99.90
65036;DHT22;51603;49.300;8.880;2023-02-23T16:35:37;11.90;99.90
65036;DHT22;51603;49.300;8.880;2023-02-23T16:38:11;11.90;99.90
65036;DHT22;51603;49.300;8.880;2023-02-23T16:40:37;11.90;99.90
65036;DHT22;51603;49.300;8.880;2023-02-23T16:43:03;11.90;99.90
65036;DHT22;51603;49.300;8.880;2023-02-23T16:45:29;11.90;99.90
65036;DHT22;51603;49.300;8.880;2023-02-23T16:47:55;11.80;99.90
65036;DHT22;51603;49.300;8.880;2023-02-23T16:50:26;11.80;99.90
65036;DHT22;51603;49.300;8.880;2023-02-23T16:52:53;11.70;99.90
65036;DHT22;51603;49.300;8.880;2023-02-23T16:55:21;11.70;99.90
65036;DHT22;51603;49.300;8.880;2023-02-23T16:57:57;11.70;99.90
65036;DHT22;51603;49.300;8.880;2023-02-23T17:00:27;11.70;99.90
65036;DHT22;51603;49.300;8.880;2023-02-23T17:02:53;11.60;99.90
65036;DHT22;51603;49.300;8.880;2023-02-23T17:05:21;11.60;99.90
65036;DHT22;51603;49.300;8.880;2023-02-23T17:07:49;11.60;99.90
65036;DHT22;51603;49.300;8.880;2023-02-23T17:10:22;11.50;99.90
65036;DHT22;51603;49.300;8.880;2023-02-23T17:12:55;11.50;99.90
65036;DHT22;51603;49.300;8.880;2023-02-23T17:15:23;11.50;99.90
65036;DHT22;51603;49.300;8.880;2023-02-23T17:17:50;11.50;99.90
65036;DHT22;51603;49.300;8.880;2023-02-23T17:20:17;11.40;99.90
65036;DHT22;51603;49.300;8.880;2023-02-23T17:22:47;11.40;99.90
65036;DHT22;51603;49.300;8.880;2023-02-23T17:25:13;11.30;99.90
65036;DHT22;51603;49.300;8.880;2023-02-23T17:27:39;11.30;99.90
65036;DHT22;51603;49.300;8.880;2023-02-23T17:30:05;11.30;99.90
65036;DHT22;51603;49.300;8.880;2023-02-23T17:32:32;11.30;99.90
65036;DHT22;51603;49.300;8.880;2023-02-23T17:34:57;11.30;99.90
65036;DHT22;51603;49.300;8.880;2023-02-23T17:37:23;11.40;99.90
65036;DHT22;51603;49.300;8.880;2023-02-23T17:39:48;11.30;99.90
65036;DHT22;51603;49.300;8.880;2023-02-23T17:42:15;11.30;99.90
65036;DHT22;51603;49.300;8.880;2023-02-23T17:44:41;11.30;99.90
65036;DHT22;51603;49.300;8.880;2023-02-23T17:47:06;11.20;99.90
65036;DHT22;51603;49.300;8.880;2023-02-23T17:49:32;11.20;99.90
65036;DHT22;51603;49.300;8.880;2023-02-23T17:51:58;11.10;99.90